x

Superior Grand Traverse Bay, Mi (gtrm4) Weather Station

4:00am - Sat 25th Oct 2014 All times are CDT. -5 hours from GMT.

  • Wind
    9mph, 20mph gusts
  • Air Temp 56°f
  • Sea Pressure 1004.7mb
  • Superior Grand Traverse Bay, Mi
  • Superior Grand Traverse Bay, Mi

More Historic Weather Station data

Upgrade to MSW Pro to gain access to the past 30 days of data for over 8000 Wavebouys and Weather Stations around the globe.

Join Pro

Comparision Forecast

View Surf forecast
   
Sat 10/25 4:00am 9 20 mph 1004.7mb 56f
3:50am 9 18 mph 1004.7mb 56f
3:40am 11 20 mph 1004.7mb 57f
3:30am 15 25 mph 1004.4mb 57f
3:20am 11 26 mph 1004.4mb 57f
3:10am 16 23 mph 1004.4mb 58f
3:00am 16 28 mph 1004.4mb 58f
2:50am 15 24 mph 1004.1mb 58f
2:40am 17 31 mph 1004.1mb 60f
2:30am 14 25 mph 1004.1mb 60f
2:20am 16 30 mph 1003.7mb 60f
2:10am 14 26 mph 1003.4mb 60f
2:00am 14 26 mph 1003.4mb 60f
1:50am 9 18 mph 1003.7mb 60f
1:40am 10 20 mph 1003.4mb 60f
1:30am 11 24 mph 1003.4mb 60f
1:20am 10 26 mph 1003.4mb 60f
1:10am 11 18 mph 1003.7mb 60f
1:00am 8 18 mph 1003.7mb 59f
12:50am 10 20 mph 1003.7mb 60f
12:40am 14 22 mph 1003.7mb 60f
12:30am 13 21 mph 1003.7mb 60f
12:20am 10 16 mph 1003.7mb 59f
12:10am 6 9 mph 1004.1mb 57f
12:00am 6 10 mph 1003.7mb 57f
Fri 10/24 11:50pm 7 13 mph 1004.1mb 57f
11:40pm 7 11 mph 1004.1mb 58f
11:30pm 8 16 mph 1004.4mb 58f
11:20pm 9 14 mph 1004.4mb 58f
11:10pm 8 16 mph 1004.4mb 58f
11:00pm 7 13 mph 1004.7mb 57f
10:50pm 7 9 mph 1004.7mb 57f
10:40pm 6 13 mph 1004.7mb 57f
10:30pm 9 16 mph 1004.7mb 57f
10:20pm 6 14 mph 1004.7mb 57f
10:10pm 5 10 mph 1004.7mb 57f
10:00pm 6 11 mph 1005.1mb 57f
9:50pm 6 10 mph 1005.4mb 56f
9:40pm 6 11 mph 1005.4mb 56f
9:30pm 6 10 mph 1005.4mb 54f
9:20pm 5 8 mph 1005.4mb 51f
9:10pm 5 7 mph 1005.4mb 50f
9:00pm 3 7 mph 1005.8mb 44f
8:50pm 3 6 mph 1005.8mb 42f
8:40pm 2 3 mph 1005.8mb 42f
8:30pm 2 3 mph 1006.1mb 42f
8:20pm 3
mph
1006.1mb 42f
8:10pm 1 2 mph 1006.1mb 43f
8:00pm 1
mph
1006.4mb 42f
7:50pm  -  2 mph 1006.8mb 44f
7:40pm 2 3 mph 1006.8mb 44f
7:30pm 3
mph
1006.8mb 44f
7:20pm 2 6 mph 1006.8mb 44f
7:10pm 3
mph
1007.1mb 44f
7:00pm 2
mph
1007.1mb 44f
6:50pm  -  1 mph 1007.1mb 45f
6:40pm  -  1 mph 1007.1mb 45f
6:30pm  -  mph 1007.1mb 46f
6:20pm  -  2 mph 1007.1mb 47f
6:10pm 1 2 mph 1007.5mb 47f
6:00pm  -  mph 1007.5mb 48f
5:50pm  -  1 mph 1007.8mb 48f
5:40pm 1 2 mph 1007.8mb 49f
5:30pm 2 5 mph 1007.8mb 49f
5:20pm 3
mph
1007.8mb 50f
5:10pm 1 3 mph 1008.1mb 51f
5:00pm 3 5 mph 1008.1mb 49f
4:50pm 3 5 mph 1008.5mb 48f
4:40pm 3 6 mph 1008.5mb 48f
4:30pm 5 6 mph 1008.5mb 48f
4:20pm 3 6 mph 1008.5mb 48f
4:10pm 6
mph
1008.5mb 48f
4:00pm 5 6 mph 1008.5mb 47f
3:50pm 3 6 mph 1008.8mb 47f
3:40pm 5 6 mph 1008.8mb 47f
3:30pm 5 6 mph 1008.8mb 47f
3:20pm 5
mph
1008.8mb 47f
3:10pm 5
mph
1009.1mb 47f
3:00pm 3 5 mph 1009.1mb 48f
2:50pm 5
mph
1009.5mb 47f
2:40pm 5
mph
1009.5mb 47f
2:30pm 3 5 mph 1009.8mb 47f
2:20pm 3
mph
1009.8mb 48f
2:10pm 2
mph
1009.8mb 48f
2:00pm 2 3 mph 1010.2mb 47f
1:50pm 3 5 mph 1010.2mb 47f
1:40pm 3 5 mph 1010.5mb 46f
1:30pm 3 5 mph 1010.5mb 46f
1:20pm 3 5 mph 1010.8mb 47f
1:10pm 3 5 mph 1010.8mb 47f
1:00pm 3 5 mph 1010.8mb 47f
12:50pm 3 5 mph 1011.2mb 46f
12:40pm 5
mph
1011.5mb 46f
12:30pm 5
mph
1011.5mb 46f
12:20pm 5
mph
1011.9mb 46f
12:10pm 5 7 mph 1011.9mb 46f
12:00pm 6 8 mph 1011.9mb 46f
11:50am 7 8 mph 1011.9mb 46f
11:40am 8 9 mph 1011.9mb 47f
11:30am 8
mph
1012.2mb 47f
11:20am 8
mph
1012.2mb 48f
11:10am 7 8 mph 1012.5mb 48f
11:00am 7
mph
1012.5mb 48f
10:50am 5 7 mph 1012.9mb 48f
10:40am 6 7 mph 1012.9mb 48f
10:30am 5 7 mph 1012.9mb 48f
10:20am 5 8 mph 1013.2mb 48f
10:10am 3 7 mph 1013.2mb 48f
10:00am 5 10 mph 1013.2mb 47f
9:50am 5 9 mph 1013.2mb 46f
9:40am 3 8 mph 1013.5mb 46f
9:30am 3 8 mph 1013.5mb 46f
9:20am 2 8 mph 1013.5mb 46f
9:10am 3 10 mph 1013.5mb 46f
9:00am 5 10 mph 1013.5mb 46f
8:50am 5 9 mph 1013.5mb 46f
8:40am 5 10 mph 1013.9mb 46f
8:30am 5 8 mph 1013.9mb 46f
8:20am 3 7 mph 1013.9mb 46f
8:10am 5 8 mph 1013.9mb 46f
8:00am 5 8 mph 1013.9mb 46f
7:50am 6 8 mph 1013.2mb 46f
7:40am 1 6 mph 1013.5mb 46f
7:30am 3 9 mph 1013.9mb 46f
7:20am 3 7 mph 1014.2mb 46f
7:10am 2 6 mph 1013.9mb 46f
7:00am 1 8 mph 1014.2mb 46f
6:50am 3 8 mph 1014.2mb 46f
6:40am 2 5 mph 1014.2mb 46f
6:30am 1 6 mph 1014.2mb 46f
6:20am 2 6 mph 1014.2mb 46f
6:10am 2 5 mph 1014.2mb 46f
6:00am 2 5 mph 1014.6mb 46f
5:50am 2 5 mph 1014.6mb 46f
5:40am 2 6 mph 1014.2mb 46f
5:30am 3 6 mph 1014.6mb 46f
5:20am 3 6 mph 1014.6mb 46f
5:10am  -  5 mph 1014.6mb 46f
5:00am 3 7 mph 1014.6mb 47f
4:50am 3 7 mph 1014.9mb 47f
4:40am 2 6 mph 1014.6mb 47f
4:30am 2 6 mph 1014.6mb 47f
4:20am 2 5 mph 1014.6mb 46f
4:10am 1 3 mph 1014.6mb 46f
4:00am 1 2 mph 1014.6mb 46f
3:50am 1 6 mph 1014.6mb 47f
3:40am 2 8 mph 1014.6mb 47f
3:30am 5 6 mph 1014.6mb 46f
3:20am 3 6 mph 1014.6mb 46f
3:10am 2 7 mph 1014.6mb 47f
3:00am 3 8 mph 1014.9mb 47f
2:50am 6 8 mph 1014.9mb 47f
2:40am 5 7 mph 1014.9mb 47f
2:30am 3 7 mph 1014.9mb 47f
2:20am 2 6 mph 1014.9mb 47f
2:10am 3 6 mph 1014.9mb 47f
2:00am 2 5 mph 1014.9mb 47f
1:50am 2 5 mph 1014.9mb 48f
1:40am 2 5 mph 1014.9mb 48f
1:30am 3 5 mph 1014.9mb 48f
1:20am 2 3 mph 1014.9mb 48f
1:10am 1 3 mph 1014.9mb 48f
1:00am 1 2 mph 1014.9mb 48f
12:50am  -  3 mph 1014.9mb 48f
12:40am 2 3 mph 1014.9mb 48f
12:30am 2 3 mph 1014.9mb 48f
12:20am 1 5 mph 1014.6mb 48f
12:10am 2 3 mph 1014.6mb 48f
12:00am  -  5 mph 1014.6mb 48f
Thu 10/23 11:50pm  -  3 mph 1014.6mb 48f
11:40pm 2 3 mph 1014.9mb 48f
11:30pm 2 5 mph 1014.9mb 48f
11:20pm 2 6 mph 1014.9mb 48f
11:10pm 2 5 mph 1014.9mb 48f
11:00pm 3 5 mph 1014.9mb 48f
10:50pm 2 5 mph 1014.9mb 48f
10:40pm 3 5 mph 1014.9mb 48f
10:30pm 2 6 mph 1014.9mb 48f
10:20pm 2 6 mph 1014.9mb 48f
10:10pm 3 7 mph 1014.9mb 48f
10:00pm 3 6 mph 1014.9mb 48f
9:50pm 3 6 mph 1014.9mb 48f
9:40pm 5 7 mph 1014.9mb 48f
9:30pm 2 6 mph 1014.9mb 48f
9:20pm 5 7 mph 1014.9mb 48f
9:10pm 3 7 mph 1014.9mb 48f
9:00pm 5 7 mph 1014.9mb 48f
8:50pm 2 9 mph 1014.9mb 48f
8:40pm 5 8 mph 1014.9mb 48f
8:30pm 3 7 mph 1014.9mb 48f
8:20pm 3 7 mph 1014.9mb 48f
8:10pm 2 5 mph 1014.9mb 48f
8:00pm 2 5 mph 1015.2mb 48f
7:50pm 1 5 mph 1015.2mb 48f
7:40pm 2 3 mph 1015.2mb 48f
7:30pm 2 3 mph 1015.2mb 48f
7:20pm  -  2 mph 1015.2mb 48f
7:10pm  -  3 mph 1015.2mb 48f
7:00pm 1 2 mph 1015.2mb 48f
6:50pm 1 2 mph 1015.2mb 48f
6:40pm  -  2 mph 1015.2mb 48f
6:30pm  -  2 mph 1015.2mb 47f
6:20pm 1 2 mph 1014.9mb 47f
6:10pm 1 3 mph 1014.9mb 47f
6:00pm 1 5 mph 1015.2mb 47f
5:50pm 2 3 mph 1015.2mb 48f
5:40pm 2 3 mph 1015.2mb 48f
5:30pm 2 5 mph 1015.2mb 48f
5:20pm 2 6 mph 1015.2mb 48f
5:10pm 3 6 mph 1015.6mb 48f
5:00pm 2 5 mph 1015.2mb 48f
4:50pm 2 6 mph 1015.2mb 48f
4:40pm 2 6 mph 1015.2mb 48f
4:30pm 1 7 mph 1015.2mb 48f
4:20pm 3 8 mph 1015.2mb 48f
4:10pm 2 8 mph 1015.2mb 48f
4:00pm 3 7 mph 1015.2mb 48f
3:50pm 3 8 mph 1015.2mb 48f
3:40pm 3 7 mph 1015.6mb 48f
3:30pm 1 5 mph 1015.6mb 48f
3:20pm 1 3 mph 1015.6mb 48f
3:10pm 3 5 mph 1015.6mb 48f
3:00pm 3
mph
1015.6mb 48f
2:50pm  -  2 mph 1015.6mb 48f
2:40pm 1 2 mph 1015.6mb 49f
2:30pm 1 2 mph 1015.6mb 49f
2:20pm  -  3 mph 1015.6mb 49f
2:10pm  -  3 mph 1015.6mb 49f
2:00pm 2 7 mph 1015.6mb 49f
1:50pm 2 6 mph 1015.6mb 49f
1:40pm 2 7 mph 1015.6mb 49f
1:30pm 2 7 mph 1015.6mb 49f
1:20pm 5 7 mph 1015.9mb 49f
1:10pm 3 6 mph 1015.9mb 49f
1:00pm 5 6 mph 1015.9mb 49f
12:50pm 2 6 mph 1015.9mb 48f
12:40pm 3 6 mph 1016.3mb 48f
12:30pm 2 5 mph 1016.3mb 48f
12:20pm 2 6 mph 1016.6mb 48f
12:10pm 3 8 mph 1016.6mb 48f
12:00pm 2 7 mph 1016.6mb 49f
11:50am 3 6 mph 1016.6mb 49f
11:40am 3 5 mph 1016.9mb 49f
11:30am 2 6 mph 1016.9mb 49f
11:20am 3 8 mph 1016.9mb 49f
11:10am 3 5 mph 1016.9mb 49f
11:00am 3 7 mph 1016.9mb 49f
10:50am 1 5 mph 1017.3mb 49f
10:40am 2 6 mph 1017.3mb 49f
10:30am 1 5 mph 1016.9mb 49f
10:20am  -  5 mph 1017.3mb 48f
10:10am 2 3 mph 1017.3mb 48f
10:00am  -  2 mph 1017.3mb 48f
9:50am 2 3 mph 1017.3mb 48f
9:40am 2 5 mph 1017.3mb 48f
9:30am 3 6 mph 1017.3mb 47f
9:20am 5 6 mph 1017.3mb 48f
9:10am 3 6 mph 1017.3mb 47f
9:00am 2 7 mph 1017.3mb 47f
8:50am 5 8 mph 1017.3mb 47f
8:40am 8
mph
1017.6mb 47f
8:30am 7 8 mph 1017.6mb 47f
8:20am 7 8 mph 1017.6mb 47f
8:10am 6 8 mph 1017.6mb 47f
8:00am 7 8 mph 1017.6mb 46f
7:50am 7 8 mph 1017.6mb 46f
7:40am 8 9 mph 1017.6mb 46f
7:30am 8 9 mph 1017.6mb 47f
7:20am 8 9 mph 1017.9mb 47f
7:10am 7 8 mph 1017.9mb 47f
7:00am  -  3 mph 1017.9mb 42f
6:50am  -  1 mph 1017.9mb 41f
6:40am  -  mph 1018.3mb 41f
6:30am  -  1 mph 1018.3mb 41f
6:20am  -  1 mph 1018.3mb 41f
6:10am 1
mph
1018.3mb 40f
6:00am  -  2 mph 1018.6mb 40f
5:50am 2
mph
1018.6mb 40f
5:40am 1 2 mph 1019mb 40f
5:30am  -  2 mph 1019mb 40f
5:20am  -  2 mph 1019mb 40f
5:10am  -  1 mph 1019.3mb 40f
5:00am  -  1 mph 1019.3mb 40f
4:50am  -  2 mph 1019.3mb 39f
4:40am  -  mph 1019.3mb 40f
4:30am  -  1 mph 1019.3mb 39f
4:20am 1 2 mph 1019.3mb 39f
4:10am  -  mph 1019.3mb 39f
4:00am  -  mph 1019.3mb 39f
3:50am  -  1 mph 1019.3mb 38f
3:40am  -  1 mph 1019.6mb 39f
3:30am  -  1 mph 1019.6mb 38f
3:20am 1 3 mph 1020mb 37f
3:10am 2 3 mph 1020mb 37f
3:00am 3 5 mph 1020mb 37f
2:50am 3 6 mph 1020mb 37f
2:40am 5 6 mph 1020.3mb 37f
2:30am 3 5 mph 1020.3mb 36f
2:20am 5 6 mph 1020.3mb 36f
2:10am 5
mph
1020.3mb 35f
2:00am 5
mph
1020.3mb 35f
1:50am 3 5 mph 1020mb 35f
1:40am 3 5 mph 1020.3mb 36f
1:30am 2 7 mph 1020.3mb 38f
1:20am 6 7 mph 1020mb 46f
1:10am 6 8 mph 1020mb 47f
1:00am 7 8 mph 1020mb 47f
12:50am 7 8 mph 1020mb 47f
12:40am 3 6 mph 1020mb 45f
12:30am 5 6 mph 1020.3mb 45f
12:20am 3 5 mph 1020.3mb 44f
12:10am 2 6 mph 1020.3mb 43f
12:00am 2 3 mph 1020.3mb 44f
Wed 10/22 11:50pm 1 2 mph 1020.3mb 44f
11:40pm  -  7 mph 1020.3mb 44f
11:30pm 6 8 mph 1020.7mb 46f
11:20pm 6 8 mph 1020.7mb 46f
11:10pm 8 10 mph 1020.7mb 47f
11:00pm 9 11 mph 1020.7mb 47f
10:50pm 10 11 mph 1020.7mb 48f
10:40pm 10 14 mph 1021mb 48f
10:30pm 11 13 mph 1021mb 48f
10:20pm 11 14 mph 1021mb 48f
10:10pm 11 13 mph 1021mb 48f
10:00pm 9 11 mph 1021mb 48f
9:50pm 9 10 mph 1021mb 48f
9:40pm 9 11 mph 1021mb 48f
9:30pm 11 15 mph 1021mb 48f
9:20pm 13 15 mph 1021.3mb 49f
9:10pm 13 14 mph 1021mb 49f
9:00pm 11 13 mph 1021.3mb 49f
8:50pm 11 13 mph 1021.3mb 49f
8:40pm 9 10 mph 1021.7mb 48f
8:30pm 7 8 mph 1021.7mb 42f
8:20pm 3 6 mph 1021.7mb 41f
8:10pm 2 3 mph 1021.7mb 37f
8:00pm 1 3 mph 1021.7mb 36f
7:50pm 2 5 mph 1021.7mb 36f
7:40pm 3 5 mph 1021.7mb 38f
7:30pm 3 5 mph 1022mb 40f
7:20pm 2 3 mph 1022mb 39f
7:10pm  -  2 mph 1022mb 40f
7:00pm 1 3 mph 1022mb 41f
6:50pm 1 2 mph 1022mb 44f
6:40pm  -  1 mph 1022mb 41f
6:30pm  -  mph 1022mb 42f
6:20pm  -  3 mph 1022mb 45f
6:10pm 3 5 mph 1022mb 47f
6:00pm 5 6 mph 1022mb 48f
5:50pm 6 7 mph 1022mb 48f
5:40pm 5 10 mph 1022.4mb 47f
5:30pm 11 14 mph 1022mb 49f
5:20pm 13 15 mph 1022mb 49f
5:10pm 14 16 mph 1022mb 49f
5:00pm 14 15 mph 1022mb 49f
4:50pm 13 16 mph 1022mb 49f
4:40pm 15 16 mph 1022mb 49f
4:30pm 14 16 mph 1022mb 49f
4:20pm 10 14 mph 1022.4mb 48f
4:10pm 11 14 mph 1022.7mb 48f
4:00pm 11 15 mph 1022.7mb 48f
3:50pm 13 15 mph 1023mb 48f
3:40pm 11 15 mph 1023mb 48f
3:30pm 13 15 mph 1023.4mb 48f
3:20pm 13 16 mph 1023.4mb 48f
3:10pm 11 13 mph 1023.4mb 47f
3:00pm 11 14 mph 1023.7mb 47f
2:50pm 11 14 mph 1023.7mb 47f
2:40pm 11 13 mph 1023.7mb 47f
2:30pm 11 13 mph 1024mb 46f
2:20pm 9 11 mph 1024.4mb 46f
2:10pm 9 11 mph 1024.4mb 46f
2:00pm 9 11 mph 1024.7mb 46f
1:50pm 9 10 mph 1024.7mb 46f
1:40pm 10 13 mph 1024.7mb 44f
1:30pm 10 13 mph 1024.7mb 44f
1:20pm 10 11 mph 1025.1mb 44f
1:10pm 9 11 mph 1025.4mb 44f
1:00pm 9 10 mph 1025.7mb 44f
12:50pm 7 8 mph 1025.7mb 44f
12:40pm 7 8 mph 1025.7mb 44f
12:30pm 7 8 mph 1026.1mb 43f
12:20pm 6 7 mph 1026.4mb 43f
12:10pm 5 7 mph 1026.4mb 43f
12:00pm 3 6 mph 1026.8mb 43f
11:50am 5 6 mph 1026.8mb 42f
11:40am 5 7 mph 1026.8mb 42f
11:30am 3 6 mph 1027.1mb 42f
11:20am 5 6 mph 1027.1mb 42f
11:10am 5 6 mph 1027.1mb 42f
11:00am 3 6 mph 1027.1mb 41f
10:50am 5 6 mph 1027.1mb 41f
10:40am 3 5 mph 1027.1mb 40f
10:30am 2 3 mph 1027.1mb 41f
10:20am 2 3 mph 1027.4mb 41f
10:10am 2
mph
1027.4mb 41f
10:00am  -  2 mph 1027.4mb 40f
9:50am  -  2 mph 1027.4mb 41f
9:40am 1 2 mph 1027.4mb 41f
9:30am  -  mph 1027.4mb 43f
9:20am  -  1 mph 1027.4mb 39f
9:10am 1 2 mph 1027.4mb 38f
9:00am  -  2 mph 1027.1mb 38f
8:50am 2 3 mph 1027.4mb 36f
8:40am 2 3 mph 1027.4mb 36f
8:30am 1 3 mph 1027.8mb 33f
8:20am 2 5 mph 1027.8mb 32f
8:10am 2 5 mph 1027.8mb 31f
8:00am 5
mph
1027.4mb 30f
7:50am 3 5 mph 1027.8mb 30f
7:40am 3 5 mph 1027.4mb 29f
7:30am 3 5 mph 1027.4mb 29f
7:20am 3 5 mph 1027.4mb 29f
7:10am 3 5 mph 1027.4mb 29f
7:00am 3 5 mph 1027.1mb 29f
6:50am 3 5 mph 1027.1mb 29f
6:40am 5
mph
1027.1mb 29f
6:30am 3 6 mph 1027.1mb 29f
6:20am 5
mph
1027.1mb 29f
6:10am 5
mph
1027.1mb 29f
6:00am 3 6 mph 1027.1mb 29f
5:50am 5 6 mph 1027.1mb 29f
5:40am 3 5 mph 1026.8mb 29f
5:30am 2 3 mph 1026.8mb 28f
5:20am 3
mph
1026.8mb 29f
5:10am 3 5 mph 1026.8mb 29f
5:00am 3 5 mph 1026.8mb 30f
4:50am 5
mph
1026.8mb 30f
4:40am 5
mph
1026.8mb 29f
4:30am 5
mph
1026.8mb 29f
4:20am 3 5 mph 1026.8mb 29f
4:10am 3 5 mph 1026.8mb 29f
4:00am 3
mph
1026.8mb 30f
3:50am 2 3 mph 1026.8mb 30f
3:40am 2
mph
1026.4mb 31f
3:30am 1 2 mph 1026.8mb 31f
3:20am 1
mph
1026.8mb 32f
3:10am 1 2 mph 1026.8mb 33f
3:00am 2
mph
1026.4mb 34f
2:50am 2 3 mph 1026.4mb 36f
2:40am 3 6 mph 1026.4mb 37f
2:30am 2 13 mph 1026.4mb 39f
2:20am 10 14 mph 1026.4mb 40f
2:10am 10 14 mph 1026.4mb 41f
2:00am 9 11 mph 1026.4mb 41f
1:50am 5 18 mph 1026.4mb 40f
1:40am 14 18 mph 1026.4mb 42f
1:30am 15 18 mph 1026.4mb 42f
1:20am 17 18 mph 1026.4mb 41f
1:10am 16 18 mph 1026.4mb 41f
1:00am 16 18 mph 1026.1mb 41f
12:50am 15 17 mph 1026.1mb 41f
12:40am 16 18 mph 1026.1mb 41f
12:30am 15 17 mph 1026.1mb 41f
12:20am 13 16 mph 1026.1mb 41f
12:10am 11 15 mph 1026.1mb 41f
12:00am 11 15 mph 1026.4mb 41f
Tue 10/21 11:50pm 11 15 mph 1026.1mb 41f
11:40pm 14 16 mph 1026.1mb 41f
11:30pm 11 15 mph 1026.4mb 41f
11:20pm 13 17 mph 1026.1mb 41f
11:10pm 14 16 mph 1026.4mb 41f
11:00pm 13 18 mph 1026.4mb 41f
10:50pm 13 15 mph 1026.4mb 41f
10:40pm 15 17 mph 1026.4mb 41f
10:30pm 16 17 mph 1026.1mb 41f
10:20pm 15 18 mph 1026.1mb 41f
10:10pm 14 17 mph 1026.4mb 41f
10:00pm 14 16 mph 1026.4mb 41f
9:50pm 14 17 mph 1026.1mb 41f
9:40pm 15 18 mph 1026.1mb 41f
9:30pm 15 17 mph 1026.1mb 41f
9:20pm 14 18 mph 1026.1mb 41f
9:10pm 15 18 mph 1025.7mb 41f
9:00pm 14 18 mph 1025.7mb 41f
8:50pm 14 16 mph 1025.7mb 41f
8:40pm 14 17 mph 1025.7mb 41f
8:30pm 13 17 mph 1025.7mb 41f
8:20pm 13 16 mph 1025.7mb 41f
8:10pm 14 17 mph 1025.7mb 41f
8:00pm 13 17 mph 1025.4mb 41f
7:50pm 13 16 mph 1025.7mb 41f
7:40pm 14 15 mph 1025.4mb 41f
7:30pm 13 15 mph 1025.4mb 41f
7:20pm 13 15 mph 1025.4mb 41f
7:10pm 14 15 mph 1025.4mb 41f
7:00pm 13 15 mph 1025.4mb 41f
6:50pm 13 15 mph 1025.4mb 41f
6:40pm 13 16 mph 1025.4mb 41f
6:30pm 13 14 mph 1025.4mb 42f
6:20pm 11 13 mph 1025.4mb 42f
6:10pm 9 13 mph 1025.4mb 42f
6:00pm 9 11 mph 1025.4mb 42f
5:50pm 10 13 mph 1025.4mb 42f
5:40pm 9 13 mph 1025.4mb 42f
5:30pm 10 13 mph 1025.4mb 42f
5:20pm 9 11 mph 1025.4mb 42f
5:10pm 10 13 mph 1025.4mb 42f
5:00pm 10 13 mph 1025.4mb 42f
4:50pm 10 13 mph 1025.4mb 42f
4:40pm 9 11 mph 1025.4mb 42f
4:30pm 9 11 mph 1025.4mb 43f
4:20pm 9 11 mph 1025.4mb 43f
4:10pm 8 10 mph 1025.4mb 43f
4:00pm 8 10 mph 1025.4mb 43f
3:50pm 9 10 mph 1025.4mb 43f
3:40pm 7 9 mph 1025.4mb 43f
3:30pm 8 10 mph 1025.4mb 43f
3:20pm 7 10 mph 1025.1mb 43f
3:10pm 7 9 mph 1025.4mb 43f
3:00pm 7 9 mph 1025.4mb 43f
2:50pm 7 9 mph 1025.4mb 43f
2:40pm 7 9 mph 1025.4mb 43f
2:30pm 7 9 mph 1025.1mb 43f
2:20pm 8 9 mph 1025.1mb 43f
2:10pm 8 9 mph 1025.4mb 43f
2:00pm 7 9 mph 1025.4mb 43f
1:50pm 6 9 mph 1025.7mb 43f
1:40pm 6 9 mph 1025.7mb 44f
1:30pm 6 8 mph 1025.4mb 43f
1:20pm 7 9 mph 1025.4mb 43f
1:10pm 8 10 mph 1025.4mb 42f
1:00pm 8 10 mph 1025.4mb 43f
12:50pm 8 10 mph 1025.4mb 43f
12:40pm 7 9 mph 1025.4mb 43f
12:30pm 8 9 mph 1025.4mb 43f
12:20pm 8 10 mph 1025.7mb 43f
12:10pm 8 10 mph 1025.7mb 43f
12:00pm 7 11 mph 1025.7mb 43f
11:50am 6 11 mph 1026.1mb 43f
11:40am 9 10 mph 1025.7mb 43f
11:30am 9 11 mph 1025.7mb 43f
11:20am 8 13 mph 1025.7mb 43f
11:10am 6 9 mph 1025.7mb 42f
11:00am 8 10 mph 1025.7mb 42f
10:50am 6 8 mph 1025.7mb 43f
10:40am 6 9 mph 1025.7mb 43f
10:30am 7 10 mph 1025.7mb 42f